sensor_id;sensor_type;location;lat;lon;timestamp;temperature;humidity
9949;DHT22;5013;51.840;8.276;2023-02-01T00:00:32;4.90;1.00
9949;DHT22;5013;51.840;8.276;2023-02-01T00:03:00;4.90;99.90
9949;DHT22;5013;51.840;8.276;2023-02-01T00:05:25;4.90;99.90
9949;DHT22;5013;51.840;8.276;2023-02-01T00:07:51;4.90;99.90
9949;DHT22;5013;51.840;8.276;2023-02-01T00:10:17;4.90;99.90
9949;DHT22;5013;51.840;8.276;2023-02-01T00:12:43;4.90;99.90
9949;DHT22;5013;51.840;8.276;2023-02-01T00:15:08;4.90;99.90
9949;DHT22;5013;51.840;8.276;2023-02-01T00:17:34;4.90;99.90
9949;DHT22;5013;51.840;8.276;2023-02-01T00:19:59;5.00;93.40
9949;DHT22;5013;51.840;8.276;2023-02-01T00:22:25;4.90;99.90
9949;DHT22;5013;51.840;8.276;2023-02-01T00:24:51;4.90;99.90
9949;DHT22;5013;51.840;8.276;2023-02-01T00:27:16;4.90;99.90
9949;DHT22;5013;51.840;8.276;2023-02-01T00:29:45;5.00;99.90
9949;DHT22;5013;51.840;8.276;2023-02-01T00:32:11;5.00;99.90
9949;DHT22;5013;51.840;8.276;2023-02-01T00:34:37;5.00;99.90
9949;DHT22;5013;51.840;8.276;2023-02-01T00:37:02;5.00;99.90
9949;DHT22;5013;51.840;8.276;2023-02-01T00:39:28;5.00;1.00
9949;DHT22;5013;51.840;8.276;2023-02-01T00:41:53;5.10;1.00
9949;DHT22;5013;51.840;8.276;2023-02-01T00:44:19;5.10;1.00
9949;DHT22;5013;51.840;8.276;2023-02-01T00:46:44;5.10;1.00
9949;DHT22;5013;51.840;8.276;2023-02-01T00:49:10;5.10;1.00
9949;DHT22;5013;51.840;8.276;2023-02-01T00:51:35;5.10;1.00
9949;DHT22;5013;51.840;8.276;2023-02-01T00:54:01;5.10;99.90
9949;DHT22;5013;51.840;8.276;2023-02-01T00:56:28;5.20;99.90
9949;DHT22;5013;51.840;8.276;2023-02-01T00:58:54;5.20;99.90
9949;DHT22;5013;51.840;8.276;2023-02-01T01:01:25;5.20;99.90
9949;DHT22;5013;51.840;8.276;2023-02-01T01:03:54;5.20;99.90
9949;DHT22;5013;51.840;8.276;2023-02-01T01:06:28;5.30;31.20
9949;DHT22;5013;51.840;8.276;2023-02-01T01:08:55;5.20;1.00
9949;DHT22;5013;51.840;8.276;2023-02-01T01:11:27;5.20;1.00
9949;DHT22;5013;51.840;8.276;2023-02-01T01:13:54;5.30;1.00
9949;DHT22;5013;51.840;8.276;2023-02-01T01:16:21;5.40;1.00
9949;DHT22;5013;51.840;8.276;2023-02-01T01:18:48;5.30;1.00
9949;DHT22;5013;51.840;8.276;2023-02-01T01:21:15;5.30;1.00
9949;DHT22;5013;51.840;8.276;2023-02-01T01:23:41;5.30;1.00
9949;DHT22;5013;51.840;8.276;2023-02-01T01:26:13;5.30;99.90
9949;DHT22;5013;51.840;8.276;2023-02-01T01:28:39;5.30;99.90
9949;DHT22;5013;51.840;8.276;2023-02-01T01:31:09;5.30;99.90
9949;DHT22;5013;51.840;8.276;2023-02-01T01:33:35;5.40;99.90
9949;DHT22;5013;51.840;8.276;2023-02-01T01:36:00;5.30;1.00
9949;DHT22;5013;51.840;8.276;2023-02-01T01:38:26;5.30;1.00
9949;DHT22;5013;51.840;8.276;2023-02-01T01:40:51;5.30;1.00
9949;DHT22;5013;51.840;8.276;2023-02-01T01:43:19;5.30;1.00
9949;DHT22;5013;51.840;8.276;2023-02-01T01:45:48;5.30;1.00
9949;DHT22;5013;51.840;8.276;2023-02-01T01:48:25;5.30;1.00
9949;DHT22;5013;51.840;8.276;2023-02-01T01:51:02;5.40;1.00
9949;DHT22;5013;51.840;8.276;2023-02-01T01:53:33;5.40;1.00
9949;DHT22;5013;51.840;8.276;2023-02-01T01:56:01;5.30;1.00
9949;DHT22;5013;51.840;8.276;2023-02-01T01:58:29;5.40;1.00
9949;DHT22;5013;51.840;8.276;2023-02-01T02:00:57;5.40;1.00
9949;DHT22;5013;51.840;8.276;2023-02-01T02:03:43;5.40;1.00
9949;DHT22;5013;51.840;8.276;2023-02-01T02:06:20;5.40;1.00
9949;DHT22;5013;51.840;8.276;2023-02-01T02:12:09;5.30;1.00
9949;DHT22;5013;51.840;8.276;2023-02-01T02:14:36;5.40;1.00
9949;DHT22;5013;51.840;8.276;2023-02-01T02:22:40;5.50;99.90
9949;DHT22;5013;51.840;8.276;2023-02-01T02:28:22;5.40;1.00
9949;DHT22;5013;51.840;8.276;2023-02-01T02:31:32;5.40;1.00
9949;DHT22;5013;51.840;8.276;2023-02-01T02:42:27;5.40;1.00
9949;DHT22;5013;51.840;8.276;2023-02-01T02:45:41;5.40;1.00
9949;DHT22;5013;51.840;8.276;2023-02-01T02:54:07;5.60;1.00
9949;DHT22;5013;51.840;8.276;2023-02-01T02:56:53;5.50;99.90
9949;DHT22;5013;51.840;8.276;2023-02-01T02:59:40;5.50;99.90
9949;DHT22;5013;51.840;8.276;2023-02-01T03:05:48;5.50;99.90
9949;DHT22;5013;51.840;8.276;2023-02-01T03:08:20;5.60;1.00
9949;DHT22;5013;51.840;8.276;2023-02-01T03:21:14;5.60;99.90
9949;DHT22;5013;51.840;8.276;2023-02-01T03:23:42;5.60;1.00
9949;DHT22;5013;51.840;8.276;2023-02-01T03:26:13;5.60;99.90
9949;DHT22;5013;51.840;8.276;2023-02-01T03:28:43;5.70;1.00
9949;DHT22;5013;51.840;8.276;2023-02-01T03:31:09;5.60;1.00
9949;DHT22;5013;51.840;8.276;2023-02-01T03:33:35;5.70;99.90
9949;DHT22;5013;51.840;8.276;2023-02-01T03:36:15;5.70;1.00
9949;DHT22;5013;51.840;8.276;2023-02-01T03:44:26;5.60;1.00
9949;DHT22;5013;51.840;8.276;2023-02-01T03:47:00;5.70;1.00
9949;DHT22;5013;51.840;8.276;2023-02-01T03:49:40;5.70;1.00
9949;DHT22;5013;51.840;8.276;2023-02-01T03:52:14;5.70;1.00
9949;DHT22;5013;51.840;8.276;2023-02-01T03:54:40;5.70;99.90
9949;DHT22;5013;51.840;8.276;2023-02-01T03:57:11;5.70;99.90
9949;DHT22;5013;51.840;8.276;2023-02-01T03:59:42;5.70;1.00
9949;DHT22;5013;51.840;8.276;2023-02-01T04:02:09;5.70;99.90
9949;DHT22;5013;51.840;8.276;2023-02-01T04:04:35;5.70;99.90
9949;DHT22;5013;51.840;8.276;2023-02-01T04:07:01;5.70;1.00
9949;DHT22;5013;51.840;8.276;2023-02-01T04:09:27;5.70;1.00
9949;DHT22;5013;51.840;8.276;2023-02-01T04:11:52;5.70;1.00
9949;DHT22;5013;51.840;8.276;2023-02-01T04:14:18;5.70;99.90
9949;DHT22;5013;51.840;8.276;2023-02-01T04:16:44;5.80;1.00
9949;DHT22;5013;51.840;8.276;2023-02-01T04:19:09;5.70;1.00
9949;DHT22;5013;51.840;8.276;2023-02-01T04:21:38;5.70;1.00
9949;DHT22;5013;51.840;8.276;2023-02-01T04:24:04;5.80;1.00
9949;DHT22;5013;51.840;8.276;2023-02-01T04:26:30;5.70;1.00
9949;DHT22;5013;51.840;8.276;2023-02-01T04:28:55;5.70;1.00
9949;DHT22;5013;51.840;8.276;2023-02-01T04:31:21;5.80;99.90
9949;DHT22;5013;51.840;8.276;2023-02-01T04:33:53;5.80;99.90
9949;DHT22;5013;51.840;8.276;2023-02-01T04:36:20;5.80;1.00
9949;DHT22;5013;51.840;8.276;2023-02-01T04:38:50;5.80;1.00
9949;DHT22;5013;51.840;8.276;2023-02-01T04:41:16;5.80;1.00
9949;DHT22;5013;51.840;8.276;2023-02-01T04:43:48;5.80;1.00
9949;DHT22;5013;51.840;8.276;2023-02-01T04:46:14;5.80;1.00
9949;DHT22;5013;51.840;8.276;2023-02-01T04:48:40;5.80;1.00
9949;DHT22;5013;51.840;8.276;2023-02-01T04:51:06;5.80;1.00
9949;DHT22;5013;51.840;8.276;2023-02-01T04:53:31;5.90;1.00
9949;DHT22;5013;51.840;8.276;2023-02-01T04:55:57;5.80;1.00
9949;DHT22;5013;51.840;8.276;2023-02-01T04:58:23;5.80;1.00
9949;DHT22;5013;51.840;8.276;2023-02-01T05:00:48;5.80;1.00
9949;DHT22;5013;51.840;8.276;2023-02-01T05:03:16;5.80;1.00
9949;DHT22;5013;51.840;8.276;2023-02-01T05:05:41;5.80;1.00
9949;DHT22;5013;51.840;8.276;2023-02-01T05:08:07;5.80;1.00
9949;DHT22;5013;51.840;8.276;2023-02-01T05:10:32;5.80;1.00
9949;DHT22;5013;51.840;8.276;2023-02-01T05:12:58;5.80;1.00
9949;DHT22;5013;51.840;8.276;2023-02-01T05:15:42;5.80;9.10
9949;DHT22;5013;51.840;8.276;2023-02-01T05:18:08;5.80;99.90
9949;DHT22;5013;51.840;8.276;2023-02-01T05:20:33;5.80;99.90
9949;DHT22;5013;51.840;8.276;2023-02-01T05:22:59;5.80;99.90
9949;DHT22;5013;51.840;8.276;2023-02-01T05:25:24;5.80;99.90
9949;DHT22;5013;51.840;8.276;2023-02-01T05:27:50;5.80;99.90
9949;DHT22;5013;51.840;8.276;2023-02-01T05:30:16;5.80;99.90
9949;DHT22;5013;51.840;8.276;2023-02-01T05:32:42;5.80;93.00
9949;DHT22;5013;51.840;8.276;2023-02-01T05:35:07;5.80;99.90
9949;DHT22;5013;51.840;8.276;2023-02-01T05:37:36;5.80;99.90
9949;DHT22;5013;51.840;8.276;2023-02-01T05:40:02;5.80;1.00
9949;DHT22;5013;51.840;8.276;2023-02-01T05:42:28;5.80;1.00
9949;DHT22;5013;51.840;8.276;2023-02-01T05:44:53;5.80;1.00
9949;DHT22;5013;51.840;8.276;2023-02-01T05:47:19;5.80;1.00
9949;DHT22;5013;51.840;8.276;2023-02-01T05:49:45;5.80;1.00
9949;DHT22;5013;51.840;8.276;2023-02-01T05:52:11;5.80;1.00
9949;DHT22;5013;51.840;8.276;2023-02-01T05:54:37;5.80;99.90
9949;DHT22;5013;51.840;8.276;2023-02-01T05:57:02;5.80;1.00
9949;DHT22;5013;51.840;8.276;2023-02-01T05:59:28;5.70;1.00
9949;DHT22;5013;51.840;8.276;2023-02-01T06:01:54;5.70;1.00
9949;DHT22;5013;51.840;8.276;2023-02-01T06:04:20;5.70;1.00
9949;DHT22;5013;51.840;8.276;2023-02-01T06:06:45;5.70;99.90
9949;DHT22;5013;51.840;8.276;2023-02-01T06:09:11;5.80;99.90
9949;DHT22;5013;51.840;8.276;2023-02-01T06:11:36;5.80;1.00
9949;DHT22;5013;51.840;8.276;2023-02-01T06:14:02;5.70;1.00
9949;DHT22;5013;51.840;8.276;2023-02-01T06:16:28;5.70;1.00
9949;DHT22;5013;51.840;8.276;2023-02-01T06:18:53;5.70;32.50
9949;DHT22;5013;51.840;8.276;2023-02-01T06:21:19;5.70;1.00
9949;DHT22;5013;51.840;8.276;2023-02-01T06:23:52;5.70;99.90
9949;DHT22;5013;51.840;8.276;2023-02-01T06:26:18;5.70;99.90
9949;DHT22;5013;51.840;8.276;2023-02-01T06:28:44;5.70;1.00
9949;DHT22;5013;51.840;8.276;2023-02-01T06:31:10;5.80;1.00
9949;DHT22;5013;51.840;8.276;2023-02-01T06:33:36;5.90;1.00
9949;DHT22;5013;51.840;8.276;2023-02-01T06:36:04;5.80;1.00
9949;DHT22;5013;51.840;8.276;2023-02-01T06:38:30;5.80;1.00
9949;DHT22;5013;51.840;8.276;2023-02-01T06:40:58;5.80;1.00
9949;DHT22;5013;51.840;8.276;2023-02-01T06:43:26;5.80;1.00
9949;DHT22;5013;51.840;8.276;2023-02-01T06:45:52;5.70;99.90
9949;DHT22;5013;51.840;8.276;2023-02-01T06:48:18;5.80;1.00
9949;DHT22;5013;51.840;8.276;2023-02-01T06:50:43;5.70;28.90
9949;DHT22;5013;51.840;8.276;2023-02-01T06:53:09;5.70;1.00
9949;DHT22;5013;51.840;8.276;2023-02-01T06:55:35;5.80;37.40
9949;DHT22;5013;51.840;8.276;2023-02-01T06:58:00;5.70;99.90
9949;DHT22;5013;51.840;8.276;2023-02-01T07:00:27;5.80;1.00
9949;DHT22;5013;51.840;8.276;2023-02-01T07:02:53;5.80;1.00
9949;DHT22;5013;51.840;8.276;2023-02-01T07:05:19;5.90;1.00
9949;DHT22;5013;51.840;8.276;2023-02-01T07:07:44;5.80;1.00
9949;DHT22;5013;51.840;8.276;2023-02-01T07:10:10;5.90;99.90
9949;DHT22;5013;51.840;8.276;2023-02-01T07:12:36;5.90;99.90
9949;DHT22;5013;51.840;8.276;2023-02-01T07:15:02;5.90;1.00
9949;DHT22;5013;51.840;8.276;2023-02-01T07:17:28;5.90;99.90
9949;DHT22;5013;51.840;8.276;2023-02-01T07:19:55;5.90;1.00
9949;DHT22;5013;51.840;8.276;2023-02-01T07:22:20;5.80;1.00
9949;DHT22;5013;51.840;8.276;2023-02-01T07:24:46;5.90;1.00
9949;DHT22;5013;51.840;8.276;2023-02-01T07:27:12;5.80;1.00
9949;DHT22;5013;51.840;8.276;2023-02-01T07:29:37;5.80;1.00
9949;DHT22;5013;51.840;8.276;2023-02-01T07:32:03;5.80;1.00
9949;DHT22;5013;51.840;8.276;2023-02-01T07:34:29;5.90;99.90
9949;DHT22;5013;51.840;8.276;2023-02-01T07:36:56;5.90;1.00
9949;DHT22;5013;51.840;8.276;2023-02-01T07:39:21;5.90;1.00
9949;DHT22;5013;51.840;8.276;2023-02-01T07:41:47;5.80;1.00
9949;DHT22;5013;51.840;8.276;2023-02-01T07:44:13;5.90;1.00
9949;DHT22;5013;51.840;8.276;2023-02-01T07:46:38;5.80;1.00
9949;DHT22;5013;51.840;8.276;2023-02-01T07:49:05;5.90;1.00
9949;DHT22;5013;51.840;8.276;2023-02-01T07:51:31;5.90;99.90
9949;DHT22;5013;51.840;8.276;2023-02-01T07:53:57;5.80;99.90
9949;DHT22;5013;51.840;8.276;2023-02-01T07:56:23;5.80;99.90
9949;DHT22;5013;51.840;8.276;2023-02-01T07:58:49;5.80;99.90
9949;DHT22;5013;51.840;8.276;2023-02-01T08:01:17;5.90;99.90
9949;DHT22;5013;51.840;8.276;2023-02-01T08:03:50;5.90;1.00
9949;DHT22;5013;51.840;8.276;2023-02-01T08:06:16;5.90;99.90
9949;DHT22;5013;51.840;8.276;2023-02-01T08:08:42;5.90;1.00
9949;DHT22;5013;51.840;8.276;2023-02-01T08:11:10;5.90;1.00
9949;DHT22;5013;51.840;8.276;2023-02-01T08:13:36;5.90;99.90
9949;DHT22;5013;51.840;8.276;2023-02-01T08:16:04;6.00;99.90
9949;DHT22;5013;51.840;8.276;2023-02-01T08:18:30;6.00;99.90
9949;DHT22;5013;51.840;8.276;2023-02-01T08:20:56;6.00;1.00
9949;DHT22;5013;51.840;8.276;2023-02-01T08:23:22;6.00;99.90
9949;DHT22;5013;51.840;8.276;2023-02-01T08:25:48;6.10;99.90
9949;DHT22;5013;51.840;8.276;2023-02-01T08:28:14;6.10;99.90
9949;DHT22;5013;51.840;8.276;2023-02-01T08:30:40;6.10;13.00
9949;DHT22;5013;51.840;8.276;2023-02-01T08:33:07;6.20;1.00
9949;DHT22;5013;51.840;8.276;2023-02-01T08:35:35;6.30;1.00
9949;DHT22;5013;51.840;8.276;2023-02-01T08:38:01;6.40;99.90
9949;DHT22;5013;51.840;8.276;2023-02-01T08:40:27;6.40;99.90
9949;DHT22;5013;51.840;8.276;2023-02-01T08:42:53;6.40;99.90
9949;DHT22;5013;51.840;8.276;2023-02-01T08:45:21;6.50;25.50
9949;DHT22;5013;51.840;8.276;2023-02-01T08:47:47;6.60;1.00
9949;DHT22;5013;51.840;8.276;2023-02-01T08:50:16;6.60;1.00
9949;DHT22;5013;51.840;8.276;2023-02-01T08:52:42;6.50;1.00
9949;DHT22;5013;51.840;8.276;2023-02-01T08:55:08;6.50;99.90
9949;DHT22;5013;51.840;8.276;2023-02-01T08:57:34;6.50;26.60
9949;DHT22;5013;51.840;8.276;2023-02-01T09:00:00;6.40;99.90
9949;DHT22;5013;51.840;8.276;2023-02-01T09:02:26;6.40;1.00
9949;DHT22;5013;51.840;8.276;2023-02-01T09:04:52;6.40;1.00
9949;DHT22;5013;51.840;8.276;2023-02-01T09:07:18;6.40;1.00
9949;DHT22;5013;51.840;8.276;2023-02-01T09:09:44;6.40;1.00
9949;DHT22;5013;51.840;8.276;2023-02-01T09:12:10;6.40;1.00
9949;DHT22;5013;51.840;8.276;2023-02-01T09:14:36;6.40;1.00
9949;DHT22;5013;51.840;8.276;2023-02-01T09:17:02;6.40;1.00
9949;DHT22;5013;51.840;8.276;2023-02-01T09:19:27;6.40;1.00
9949;DHT22;5013;51.840;8.276;2023-02-01T09:21:53;6.40;1.00
9949;DHT22;5013;51.840;8.276;2023-02-01T09:24:19;6.40;1.00
9949;DHT22;5013;51.840;8.276;2023-02-01T09:26:44;6.30;99.90
9949;DHT22;5013;51.840;8.276;2023-02-01T09:29:10;6.40;1.00
9949;DHT22;5013;51.840;8.276;2023-02-01T09:31:36;6.40;1.00
9949;DHT22;5013;51.840;8.276;2023-02-01T09:34:02;6.40;1.00
9949;DHT22;5013;51.840;8.276;2023-02-01T09:36:28;6.50;99.90
9949;DHT22;5013;51.840;8.276;2023-02-01T09:38:54;6.50;99.90
9949;DHT22;5013;51.840;8.276;2023-02-01T09:46:55;6.50;99.90
9949;DHT22;5013;51.840;8.276;2023-02-01T09:49:31;6.40;99.90
9949;DHT22;5013;51.840;8.276;2023-02-01T09:51:59;6.50;99.90
9949;DHT22;5013;51.840;8.276;2023-02-01T09:57:13;6.50;1.00
9949;DHT22;5013;51.840;8.276;2023-02-01T09:59:54;6.60;1.00
9949;DHT22;5013;51.840;8.276;2023-02-01T10:02:25;6.60;1.00
9949;DHT22;5013;51.840;8.276;2023-02-01T10:04:54;6.60;1.00
9949;DHT22;5013;51.840;8.276;2023-02-01T10:10:02;6.70;99.90
9949;DHT22;5013;51.840;8.276;2023-02-01T10:15:17;6.80;99.90
9949;DHT22;5013;51.840;8.276;2023-02-01T10:21:02;7.00;1.00
9949;DHT22;5013;51.840;8.276;2023-02-01T10:26:22;7.10;24.20
9949;DHT22;5013;51.840;8.276;2023-02-01T10:28:51;7.00;1.00
9949;DHT22;5013;51.840;8.276;2023-02-01T10:31:18;7.00;1.00
9949;DHT22;5013;51.840;8.276;2023-02-01T10:34:01;7.10;1.00
9949;DHT22;5013;51.840;8.276;2023-02-01T10:36:36;7.10;1.00
9949;DHT22;5013;51.840;8.276;2023-02-01T10:39:05;7.20;1.00
9949;DHT22;5013;51.840;8.276;2023-02-01T10:41:35;7.10;1.00
9949;DHT22;5013;51.840;8.276;2023-02-01T10:44:04;7.10;1.00
9949;DHT22;5013;51.840;8.276;2023-02-01T10:46:31;7.30;1.00
9949;DHT22;5013;51.840;8.276;2023-02-01T10:49:00;7.20;1.00
9949;DHT22;5013;51.840;8.276;2023-02-01T10:54:33;7.20;1.00
9949;DHT22;5013;51.840;8.276;2023-02-01T10:57:00;7.10;1.00
9949;DHT22;5013;51.840;8.276;2023-02-01T10:59:28;7.10;1.00
9949;DHT22;5013;51.840;8.276;2023-02-01T11:02:02;7.10;1.00
9949;DHT22;5013;51.840;8.276;2023-02-01T11:04:34;7.10;1.00
9949;DHT22;5013;51.840;8.276;2023-02-01T11:07:16;7.10;1.00
9949;DHT22;5013;51.840;8.276;2023-02-01T11:09:50;7.10;1.00
9949;DHT22;5013;51.840;8.276;2023-02-01T11:12:45;7.10;99.90
9949;DHT22;5013;51.840;8.276;2023-02-01T11:15:20;7.10;99.90
9949;DHT22;5013;51.840;8.276;2023-02-01T11:17:48;7.00;99.90
9949;DHT22;5013;51.840;8.276;2023-02-01T11:20:49;7.00;78.30
9949;DHT22;5013;51.840;8.276;2023-02-01T11:23:19;7.00;99.90
9949;DHT22;5013;51.840;8.276;2023-02-01T11:25:54;7.00;99.90
9949;DHT22;5013;51.840;8.276;2023-02-01T11:28:23;7.00;99.90
9949;DHT22;5013;51.840;8.276;2023-02-01T11:30:52;7.00;99.90
9949;DHT22;5013;51.840;8.276;2023-02-01T11:33:23;7.00;99.90
9949;DHT22;5013;51.840;8.276;2023-02-01T11:35:52;7.10;41.40
9949;DHT22;5013;51.840;8.276;2023-02-01T11:40:43;7.10;26.90
9949;DHT22;5013;51.840;8.276;2023-02-01T11:43:24;7.10;99.90
9949;DHT22;5013;51.840;8.276;2023-02-01T11:48:24;7.00;1.00
9949;DHT22;5013;51.840;8.276;2023-02-01T12:01:58;6.80;1.00
9949;DHT22;5013;51.840;8.276;2023-02-01T12:05:04;6.80;1.00
9949;DHT22;5013;51.840;8.276;2023-02-01T12:18:45;6.40;1.00
9949;DHT22;5013;51.840;8.276;2023-02-01T12:24:32;6.30;85.30
9949;DHT22;5013;51.840;8.276;2023-02-01T12:27:28;6.30;99.90
9949;DHT22;5013;51.840;8.276;2023-02-01T12:35:53;6.30;99.90
9949;DHT22;5013;51.840;8.276;2023-02-01T12:41:17;6.30;99.90
9949;DHT22;5013;51.840;8.276;2023-02-01T12:43:53;6.20;1.00
9949;DHT22;5013;51.840;8.276;2023-02-01T12:46:22;6.10;1.00
9949;DHT22;5013;51.840;8.276;2023-02-01T12:49:06;6.20;1.00
9949;DHT22;5013;51.840;8.276;2023-02-01T12:51:38;6.20;1.00
9949;DHT22;5013;51.840;8.276;2023-02-01T12:54:14;6.00;1.00
9949;DHT22;5013;51.840;8.276;2023-02-01T12:56:57;6.00;1.00
9949;DHT22;5013;51.840;8.276;2023-02-01T12:59:31;5.90;1.00
9949;DHT22;5013;51.840;8.276;2023-02-01T13:07:34;5.90;1.00
9949;DHT22;5013;51.840;8.276;2023-02-01T13:10:17;5.90;1.00
9949;DHT22;5013;51.840;8.276;2023-02-01T13:15:23;6.00;1.00
9949;DHT22;5013;51.840;8.276;2023-02-01T13:17:51;6.00;1.00
9949;DHT22;5013;51.840;8.276;2023-02-01T13:23:08;6.10;1.00
9949;DHT22;5013;51.840;8.276;2023-02-01T13:25:50;6.10;1.00
9949;DHT22;5013;51.840;8.276;2023-02-01T13:28:30;6.00;1.00
9949;DHT22;5013;51.840;8.276;2023-02-01T13:40:19;6.10;52.70
9949;DHT22;5013;51.840;8.276;2023-02-01T13:42:27;6.30;36.90
9949;DHT22;5013;51.840;8.276;2023-02-01T13:45:12;6.40;13.50
9949;DHT22;5013;51.840;8.276;2023-02-01T13:47:41;6.40;1.00
9949;DHT22;5013;51.840;8.276;2023-02-01T13:50:34;6.40;1.00
9949;DHT22;5013;51.840;8.276;2023-02-01T13:53:14;6.40;1.00
9949;DHT22;5013;51.840;8.276;2023-02-01T13:55:44;6.40;1.00
9949;DHT22;5013;51.840;8.276;2023-02-01T13:58:18;6.40;1.00
9949;DHT22;5013;51.840;8.276;2023-02-01T14:00:45;6.50;1.00
9949;DHT22;5013;51.840;8.276;2023-02-01T14:03:14;6.50;1.00
9949;DHT22;5013;51.840;8.276;2023-02-01T14:08:12;6.50;1.00
9949;DHT22;5013;51.840;8.276;2023-02-01T14:10:55;6.50;1.00
9949;DHT22;5013;51.840;8.276;2023-02-01T14:13:35;6.50;1.00
9949;DHT22;5013;51.840;8.276;2023-02-01T14:23:46;6.60;1.00
9949;DHT22;5013;51.840;8.276;2023-02-01T14:26:15;6.60;1.00
9949;DHT22;5013;51.840;8.276;2023-02-01T14:28:45;6.60;1.00
9949;DHT22;5013;51.840;8.276;2023-02-01T14:31:31;6.70;1.00
9949;DHT22;5013;51.840;8.276;2023-02-01T14:33:58;6.70;99.90
9949;DHT22;5013;51.840;8.276;2023-02-01T14:36:26;6.70;99.90
9949;DHT22;5013;51.840;8.276;2023-02-01T14:39:03;6.80;99.90
9949;DHT22;5013;51.840;8.276;2023-02-01T14:41:31;6.80;99.90
9949;DHT22;5013;51.840;8.276;2023-02-01T14:47:04;6.70;99.90
9949;DHT22;5013;51.840;8.276;2023-02-01T14:49:41;6.70;99.90
9949;DHT22;5013;51.840;8.276;2023-02-01T14:52:11;6.80;99.90
9949;DHT22;5013;51.840;8.276;2023-02-01T14:54:39;6.80;99.90
9949;DHT22;5013;51.840;8.276;2023-02-01T14:57:08;6.80;99.90
9949;DHT22;5013;51.840;8.276;2023-02-01T14:59:36;6.80;79.30
9949;DHT22;5013;51.840;8.276;2023-02-01T15:02:21;6.80;99.90
9949;DHT22;5013;51.840;8.276;2023-02-01T15:04:55;6.80;99.90
9949;DHT22;5013;51.840;8.276;2023-02-01T15:07:23;6.80;99.90
9949;DHT22;5013;51.840;8.276;2023-02-01T15:09:50;6.70;99.90
9949;DHT22;5013;51.840;8.276;2023-02-01T15:12:22;6.80;99.90
9949;DHT22;5013;51.840;8.276;2023-02-01T15:17:40;6.80;99.90
9949;DHT22;5013;51.840;8.276;2023-02-01T15:20:21;6.90;99.90
9949;DHT22;5013;51.840;8.276;2023-02-01T15:23:06;6.80;99.90
9949;DHT22;5013;51.840;8.276;2023-02-01T15:25:35;6.80;99.90
9949;DHT22;5013;51.840;8.276;2023-02-01T15:28:02;6.80;99.90
9949;DHT22;5013;51.840;8.276;2023-02-01T15:30:34;6.60;99.90
9949;DHT22;5013;51.840;8.276;2023-02-01T15:33:17;6.40;1.00
9949;DHT22;5013;51.840;8.276;2023-02-01T15:35:47;6.40;1.00
9949;DHT22;5013;51.840;8.276;2023-02-01T15:43:34;6.60;1.00
9949;DHT22;5013;51.840;8.276;2023-02-01T15:46:01;6.60;1.00
9949;DHT22;5013;51.840;8.276;2023-02-01T15:48:35;6.50;1.00
9949;DHT22;5013;51.840;8.276;2023-02-01T15:51:02;6.60;1.00
9949;DHT22;5013;51.840;8.276;2023-02-01T15:53:28;6.60;1.00
9949;DHT22;5013;51.840;8.276;2023-02-01T15:55:59;6.50;1.00
9949;DHT22;5013;51.840;8.276;2023-02-01T15:58:25;6.40;1.00
9949;DHT22;5013;51.840;8.276;2023-02-01T16:00:57;6.10;1.00
9949;DHT22;5013;51.840;8.276;2023-02-01T16:03:42;5.90;1.00
9949;DHT22;5013;51.840;8.276;2023-02-01T16:06:29;5.90;1.00
9949;DHT22;5013;51.840;8.276;2023-02-01T16:11:32;5.60;1.00
9949;DHT22;5013;51.840;8.276;2023-02-01T16:14:04;5.00;99.90
9949;DHT22;5013;51.840;8.276;2023-02-01T16:16:30;4.90;99.90
9949;DHT22;5013;51.840;8.276;2023-02-01T16:18:56;4.90;99.90
9949;DHT22;5013;51.840;8.276;2023-02-01T16:21:22;5.10;94.10
9949;DHT22;5013;51.840;8.276;2023-02-01T16:23:51;5.20;82.10
9949;DHT22;5013;51.840;8.276;2023-02-01T16:26:18;5.30;1.00
9949;DHT22;5013;51.840;8.276;2023-02-01T16:28:44;5.50;1.00
9949;DHT22;5013;51.840;8.276;2023-02-01T16:31:14;5.50;1.00
9949;DHT22;5013;51.840;8.276;2023-02-01T16:33:46;5.50;1.00
9949;DHT22;5013;51.840;8.276;2023-02-01T16:36:12;5.50;1.00
9949;DHT22;5013;51.840;8.276;2023-02-01T16:38:38;5.60;1.00
9949;DHT22;5013;51.840;8.276;2023-02-01T16:41:05;5.70;1.00
9949;DHT22;5013;51.840;8.276;2023-02-01T16:43:31;5.60;99.90
9949;DHT22;5013;51.840;8.276;2023-02-01T16:46:00;5.50;1.00
9949;DHT22;5013;51.840;8.276;2023-02-01T16:48:30;5.40;1.00
9949;DHT22;5013;51.840;8.276;2023-02-01T16:50:58;5.40;1.00
9949;DHT22;5013;51.840;8.276;2023-02-01T16:53:26;5.30;1.00
9949;DHT22;5013;51.840;8.276;2023-02-01T16:55:53;5.30;1.00
9949;DHT22;5013;51.840;8.276;2023-02-01T16:58:20;5.30;1.00
9949;DHT22;5013;51.840;8.276;2023-02-01T17:00:46;5.20;1.00
9949;DHT22;5013;51.840;8.276;2023-02-01T17:03:12;5.20;1.00
9949;DHT22;5013;51.840;8.276;2023-02-01T17:05:47;5.20;1.00
9949;DHT22;5013;51.840;8.276;2023-02-01T17:08:19;5.30;1.00
9949;DHT22;5013;51.840;8.276;2023-02-01T17:10:45;5.30;1.00
9949;DHT22;5013;51.840;8.276;2023-02-01T17:13:14;5.40;1.00
9949;DHT22;5013;51.840;8.276;2023-02-01T17:15:40;5.50;1.00
9949;DHT22;5013;51.840;8.276;2023-02-01T17:18:15;5.60;1.00
9949;DHT22;5013;51.840;8.276;2023-02-01T17:20:41;5.60;1.00
9949;DHT22;5013;51.840;8.276;2023-02-01T17:23:07;5.60;1.00
9949;DHT22;5013;51.840;8.276;2023-02-01T17:25:32;5.70;24.60
9949;DHT22;5013;51.840;8.276;2023-02-01T17:27:58;5.70;99.90
9949;DHT22;5013;51.840;8.276;2023-02-01T17:30:24;5.60;99.90
9949;DHT22;5013;51.840;8.276;2023-02-01T17:32:50;5.60;99.90
9949;DHT22;5013;51.840;8.276;2023-02-01T17:35:20;5.60;99.90
9949;DHT22;5013;51.840;8.276;2023-02-01T17:37:47;5.60;99.90
9949;DHT22;5013;51.840;8.276;2023-02-01T17:40:13;5.50;99.90
9949;DHT22;5013;51.840;8.276;2023-02-01T17:42:39;5.40;94.20
9949;DHT22;5013;51.840;8.276;2023-02-01T17:47:42;5.30;93.50
9949;DHT22;5013;51.840;8.276;2023-02-01T17:50:08;5.30;80.00
9949;DHT22;5013;51.840;8.276;2023-02-01T17:52:34;5.30;43.60
9949;DHT22;5013;51.840;8.276;2023-02-01T17:55:00;5.30;49.90
9949;DHT22;5013;51.840;8.276;2023-02-01T17:57:28;5.20;55.00
9949;DHT22;5013;51.840;8.276;2023-02-01T17:59:53;5.30;71.40
9949;DHT22;5013;51.840;8.276;2023-02-01T18:02:21;5.20;71.80
9949;DHT22;5013;51.840;8.276;2023-02-01T18:04:47;5.20;99.90
9949;DHT22;5013;51.840;8.276;2023-02-01T18:07:14;5.10;99.90
9949;DHT22;5013;51.840;8.276;2023-02-01T18:09:39;5.10;99.90
9949;DHT22;5013;51.840;8.276;2023-02-01T18:12:06;5.10;99.90
9949;DHT22;5013;51.840;8.276;2023-02-01T18:14:37;5.10;99.90
9949;DHT22;5013;51.840;8.276;2023-02-01T18:17:02;5.10;99.90
9949;DHT22;5013;51.840;8.276;2023-02-01T18:19:28;5.10;99.90
9949;DHT22;5013;51.840;8.276;2023-02-01T18:21:53;5.20;99.90
9949;DHT22;5013;51.840;8.276;2023-02-01T18:24:22;5.20;99.90
9949;DHT22;5013;51.840;8.276;2023-02-01T18:26:48;5.20;99.90
9949;DHT22;5013;51.840;8.276;2023-02-01T18:29:13;5.20;99.90
9949;DHT22;5013;51.840;8.276;2023-02-01T18:31:46;5.20;99.90
9949;DHT22;5013;51.840;8.276;2023-02-01T18:34:12;5.20;99.90
9949;DHT22;5013;51.840;8.276;2023-02-01T18:36:45;5.20;99.90
9949;DHT22;5013;51.840;8.276;2023-02-01T18:39:10;5.10;99.90
9949;DHT22;5013;51.840;8.276;2023-02-01T18:41:36;5.20;99.90
9949;DHT22;5013;51.840;8.276;2023-02-01T18:44:02;5.20;99.90
9949;DHT22;5013;51.840;8.276;2023-02-01T18:46:28;5.20;99.90
9949;DHT22;5013;51.840;8.276;2023-02-01T18:48:54;5.20;99.90
9949;DHT22;5013;51.840;8.276;2023-02-01T18:51:20;5.20;99.90
9949;DHT22;5013;51.840;8.276;2023-02-01T18:53:48;5.10;99.90
9949;DHT22;5013;51.840;8.276;2023-02-01T18:56:15;5.20;99.90
9949;DHT22;5013;51.840;8.276;2023-02-01T18:58:42;5.10;99.90
9949;DHT22;5013;51.840;8.276;2023-02-01T19:01:14;5.20;99.90
9949;DHT22;5013;51.840;8.276;2023-02-01T19:03:40;5.20;99.90
9949;DHT22;5013;51.840;8.276;2023-02-01T19:06:06;5.20;99.90
9949;DHT22;5013;51.840;8.276;2023-02-01T19:08:32;5.30;73.10
9949;DHT22;5013;51.840;8.276;2023-02-01T19:10:58;5.40;61.80
9949;DHT22;5013;51.840;8.276;2023-02-01T19:13:25;5.40;45.60